Terminal Aerodrome Forecast
Issued by NWS Northern Indiana

Home | Current Version | Previous Version | Graphics & Text | Print | Product List | Glossary On
Versions: 1 2 3 4 5 6 7 8 9 10 11 12 13 14 15 16 17
000
FTUS43 KIWX 291422 AAA
TAFFWA
TAF AMD
KFWA 291422Z 2914/3012 14011G18KT P6SM BKN012 BKN080
      TEMPO 2915/2918 BKN008
     FM291800 10010KT P6SM VCSH BKN015 OVC040
     FM300000 24003KT 6SM BR OVC015
      TEMPO 3009/3012 3SM BR OVC008=

USA.gov is the U.S. government's official web portal to all federal, state and local government web resources and services.